Hlavní strana
METAR-TAF:

METAR-TAF

Letiště :

Malindi, Keňa

zeměpisná šířka: 03-14S, zeměpisná délka: 040-06E, výška: 20 m

Aktuální stav počasí

Zpráva byla vytvořena před 1 hodinou a 1 minutami, v 08:00 UTC
Severovýchodní vítr 14 kt
Teplota 30°C
Vlhkost vzduchu 59%
Tlak 1009 hPa
Viditelnost 10 km a více
Skoro jasno ve výšce 2500 ft

METAR: HKML 220800Z 05014KT 9999 FEW025 30/21 Q1009

Čas: 12:01 (09:01 UTC)


TAF: chybějící

Stav a předpovědi počasí z více než 4 000 letišť (zprávy METAR a TAF).

Červené a žluté tečky na mapě představují dostupné meteorologické stanice.

Když kurzor umístíte na tečku, zobrazí se název stanice.

Pak kliknutím zobrazíte stav a předpověď počasí.

Chcete-li změnit mapu, kliknutím na zelené tlačítko se znaménkem +mapu přiblížíte, kliknutím na zelené tlačítko se znaménkem – mapu oddálíte a kliknutím na zelené šipky přejdete na sousední mapy.


METAR-TAF: